This is the latest recevied weather packets stored in our database for station/object VK5TRM-13. If no packets are shown the sender has not sent any weather packets the latest 10 day(s).
| Time | Temp. | Humidity | Pressure | Rain* | Wind** | Luminosity | Snow |
|---|---|---|---|---|---|---|---|
| 1787643303 | 15° C | 85% | 1018.2 hPa | 0 mm | - | - | - |
| 1787642403 | 15° C | 86% | 1017.7 hPa | 0 mm | - | - | - |
| 1787641503 | 15° C | 86% | 1017.7 hPa | 0 mm | - | - | - |
| 1787640602 | 15° C | 82% | 1017.1 hPa | 0 mm | - | - | - |
| 1787639702 | 15° C | 82% | 1017.1 hPa | 0 mm | - | - | - |
| 1787638803 | 15° C | 85% | 1016.7 hPa | 0 mm | - | - | - |
| 1787637903 | 15° C | 85% | 1016.7 hPa | 0 mm | - | - | - |
| 1787637002 | 14.44° C | 91% | 1016.3 hPa | 0.25 mm | - | - | - |
| 1787636102 | 14.44° C | 91% | 1016.3 hPa | 0.25 mm | - | - | - |
| 1787635203 | 14.44° C | 92% | 1015.8 hPa | 1.02 mm | - | - | - |
| 1787634303 | 14.44° C | 92% | 1015.8 hPa | 1.02 mm | - | - | - |
| 1787633403 | 13.89° C | 94% | 1015.2 hPa | 1.02 mm | - | - | - |
| 1787632503 | 13.89° C | 94% | 1015.2 hPa | 1.02 mm | - | - | - |
| 1787631603 | 14.44° C | 89% | 1014.9 hPa | 0.25 mm | - | - | - |
| 1787630703 | 14.44° C | 89% | 1014.9 hPa | 0.25 mm | - | - | - |
| 1787629803 | 15° C | 87% | 1014.5 hPa | 0 mm | - | - | - |
| 1787628903 | 15° C | 87% | 1014.5 hPa | 0 mm | - | - | - |
| 1787628003 | 14.44° C | 89% | 1014.3 hPa | 0 mm | - | - | - |
| 1787627103 | 14.44° C | 89% | 1014.3 hPa | 0 mm | - | - | - |
| 1787626203 | 15° C | 90% | 1014.1 hPa | 0.51 mm | - | - | - |
| 1787625318 | 15° C | 90% | 1014.1 hPa | 0.51 mm | - | - | - |
| 1787624402 | 15° C | 94% | 1013.8 hPa | 2.79 mm | - | - | - |
| 1787623502 | 15° C | 94% | 1013.8 hPa | 2.79 mm | - | - | - |
| 1787622602 | 14.44° C | 95% | 1013.7 hPa | 2.54 mm | - | - | - |
| 1787621703 | 14.44° C | 95% | 1013.7 hPa | 2.54 mm | - | - | - |
* Rain latest hour (hover to see other rain measurements)
** Current wind speed in m/s (hover to see current wind gust speed)